Disclaimer

Please do not use the information listed here in-flight or in-navigation, as they are not provided to us by the airports but are provided by volunteers, so they might be outdated.

Search


Regions


Airport information page

No radio frequency information is available.

Airport informations:
Latitude: 14° 08' 48.77" N
Longitude: 016° 03' 04.67" W
Elevation: 26 feet - 8 meters
Operating hours: Remarks
Operating agency: Civil government, landing fees and diplomatic clearance may be required
Timezone: UTC 0
Fuel: N/A

Runway information:
06/24 - 5249 x 98 feet< - >1600 x 30 meters

Recent METARs:
GOOK 160800Z 04004KT CAVOK 21/09 Q1017
GOOK 160900Z 04006KT CAVOK 24/09 Q1018
GOOK 160900Z 04006KT CAVOK 24/09 Q1018

Airport on the map: